Daffan, Texas
Current Conditions -  °F | °C
As of 8:35 AM on Sunday 23 Nov 2014 (Local Time) from KEDC Reporting Station
Clear Clear  
Wind Chill: 57°   Ceiling: Unl
Heat Index: 57°   Visibility: 10mi
Dew Point: 57°   Wind: 8mph
Humidity: 100%   Direction: 220°SW
Pressure: 29.66"   Gusts: NA
Location:  30.352°N, 97.5205°W
Report Text: KEDC 231435Z AUTO 22007KT 10SM CLR 14/14 A2966 RMK AO2
Loading
Personal Weather Stations






























Interactive Weather Map New forecast layout! Learn more

10-Day Weather Forecast

Advertisements
Track Severe Weather on mobile